Prescott, Arizona
Current Conditions -  °F | °C
As of 8:53 PM on Thursday 30 Oct 2014 (Local Time) from KPRC Reporting Station
Clear Clear  
Wind Chill: 52°   Ceiling: Unl
Heat Index: 52°   Visibility: 10mi
Dew Point: 33°   Wind: 6mph
Humidity: 49%   Direction: 190°S
Pressure: 30.18"   Gusts: NA
Location:  34.54°N, 112.47°W
Report Text: KPRC 310353Z 19005KT 10SM CLR 11/01 A3018 RMK AO2 SLP172 T01110006
Loading
Personal Weather Stations






























Interactive Weather Map
Tropical Storm Tracking
New forecast layout! Learn more

10-Day Weather Forecast

Advertisements
Track Severe Weather on mobile